createdAt,value
2023-04-24T00:01:37.261Z,11.60
2023-04-24T00:04:08.329Z,12.87
2023-04-24T00:06:39.719Z,13.60
2023-04-24T00:09:11.019Z,14.23
2023-04-24T00:11:40.660Z,14.45
2023-04-24T00:14:09.996Z,15.13
2023-04-24T00:16:39.717Z,15.32
2023-04-24T00:19:09.523Z,15.65
2023-04-24T00:21:39.053Z,16.27
2023-04-24T00:24:10.054Z,15.83
2023-04-24T00:26:39.516Z,16.48
2023-04-24T00:29:09.053Z,17.27
2023-04-24T00:31:38.396Z,16.65
2023-04-24T00:34:08.836Z,17.12
2023-04-24T00:36:38.251Z,16.95
2023-04-24T00:39:09.720Z,16.40
2023-04-24T00:41:39.213Z,15.55
2023-04-24T00:44:09.444Z,15.60
2023-04-24T00:46:38.768Z,15.23
2023-04-24T00:49:08.311Z,15.18
2023-04-24T00:51:37.752Z,15.85
2023-04-24T00:54:07.063Z,16.55
2023-04-24T00:56:36.846Z,15.38
2023-04-24T00:59:06.388Z,16.57
2023-04-24T01:01:35.959Z,15.25
2023-04-24T01:04:05.821Z,16.25
2023-04-24T01:06:35.731Z,14.93
2023-04-24T01:09:05.312Z,13.68
2023-04-24T01:11:34.576Z,12.65
2023-04-24T01:14:04.436Z,12.45
2023-04-24T01:16:34.361Z,13.20
2023-04-24T01:19:03.653Z,13.25
2023-04-24T01:21:33.077Z,13.68
2023-04-24T01:24:02.347Z,13.95
2023-04-24T01:26:31.916Z,13.48
2023-04-24T01:29:01.335Z,13.18
2023-04-24T01:31:31.533Z,13.58
2023-04-24T01:34:01.298Z,13.48
2023-04-24T01:36:32.302Z,13.98
2023-04-24T01:39:01.760Z,12.88
2023-04-24T01:41:31.483Z,14.03
2023-04-24T01:44:00.934Z,14.00
2023-04-24T01:46:31.739Z,15.90
2023-04-24T01:49:02.200Z,17.82
2023-04-24T01:51:31.534Z,18.87
2023-04-24T01:54:00.829Z,21.33
2023-04-24T01:56:38.711Z,22.73
2023-04-24T01:59:08.803Z,21.97
2023-04-24T02:01:38.908Z,22.62
2023-04-24T02:04:10.042Z,23.27
2023-04-24T02:06:39.801Z,21.95
2023-04-24T02:09:09.490Z,20.25
2023-04-24T02:11:39.048Z,19.40
2023-04-24T02:14:08.621Z,17.75
2023-04-24T02:16:37.989Z,17.62
2023-04-24T02:19:07.522Z,18.60
2023-04-24T02:21:36.791Z,17.87
2023-04-24T02:24:06.128Z,18.48
2023-04-24T02:26:35.571Z,18.30
2023-04-24T02:29:04.853Z,17.60
2023-04-24T02:31:34.909Z,17.90
2023-04-24T02:34:04.349Z,18.57
2023-04-24T02:36:33.630Z,18.50
2023-04-24T02:39:04.637Z,18.67
2023-04-24T02:41:34.690Z,19.63
2023-04-24T02:44:03.992Z,18.50
2023-04-24T02:46:33.288Z,19.20
2023-04-24T02:49:03.588Z,17.92
2023-04-24T02:51:32.860Z,17.85
2023-04-24T02:54:02.225Z,15.95
2023-04-24T02:56:32.080Z,14.28
2023-04-24T02:59:02.140Z,13.45
2023-04-24T03:01:32.401Z,14.05
2023-04-24T03:04:02.003Z,11.50
2023-04-24T03:06:33.152Z,11.68
2023-04-24T03:09:02.690Z,11.45
2023-04-24T03:11:32.145Z,11.63
2023-04-24T03:14:01.740Z,12.98
2023-04-24T03:16:31.092Z,12.95
2023-04-24T03:19:00.540Z,12.88
2023-04-24T03:21:31.865Z,13.15
2023-04-24T03:24:01.585Z,13.43
2023-04-24T03:26:31.136Z,12.10
2023-04-24T03:29:02.171Z,11.88
2023-04-24T03:31:31.763Z,11.33
2023-04-24T03:34:01.612Z,11.57
2023-04-24T03:36:32.036Z,11.28
2023-04-24T03:39:01.592Z,10.58
2023-04-24T03:41:32.577Z,10.80
2023-04-24T03:44:06.389Z,10.68
2023-04-24T03:46:36.315Z,9.00
2023-04-24T03:49:05.860Z,8.88
2023-04-24T03:51:37.820Z,8.20
2023-04-24T03:54:08.889Z,6.90
2023-04-24T03:56:39.737Z,6.75
2023-04-24T03:59:09.346Z,5.78
2023-04-24T04:01:42.851Z,4.80
2023-04-24T04:04:16.576Z,5.15
2023-04-24T04:06:47.621Z,4.67
2023-04-24T04:09:17.098Z,3.70
2023-04-24T04:11:48.165Z,3.40
2023-04-24T04:14:17.432Z,3.08
2023-04-24T04:16:48.859Z,3.20
2023-04-24T04:19:18.287Z,3.40
2023-04-24T04:21:49.464Z,3.67
2023-04-24T04:24:23.531Z,3.47
2023-04-24T04:26:55.631Z,3.30
2023-04-24T04:29:26.956Z,4.20
2023-04-24T04:31:56.451Z,4.47
2023-04-24T04:34:25.808Z,5.00
2023-04-24T04:36:55.098Z,5.70
2023-04-24T04:39:32.157Z,6.47
2023-04-24T04:42:03.421Z,6.60
2023-04-24T04:44:36.298Z,6.70
2023-04-24T04:47:06.557Z,7.92
2023-04-24T04:49:37.948Z,7.58
2023-04-24T04:52:08.885Z,8.23
2023-04-24T04:54:38.796Z,8.10
2023-04-24T04:57:09.049Z,9.63
2023-04-24T04:59:38.561Z,9.18
2023-04-24T05:02:09.634Z,10.32
2023-04-24T05:04:39.578Z,11.40
2023-04-24T05:07:09.038Z,12.30
2023-04-24T05:09:40.092Z,12.03
2023-04-24T05:12:09.545Z,12.37
2023-04-24T05:14:40.545Z,8.68
2023-04-24T05:17:10.139Z,7.95
2023-04-24T05:19:39.763Z,6.72
2023-04-24T05:22:10.586Z,6.70
2023-04-24T05:24:41.737Z,5.65
2023-04-24T05:27:16.179Z,5.78
2023-04-24T05:29:46.059Z,5.85
2023-04-24T05:32:15.831Z,5.47
2023-04-24T05:34:45.246Z,6.00
2023-04-24T05:37:14.667Z,6.62
2023-04-24T05:39:44.252Z,6.35
2023-04-24T05:42:14.193Z,6.58
2023-04-24T05:44:43.509Z,6.67
2023-04-24T05:47:13.013Z,7.08
2023-04-24T05:49:42.740Z,7.03
2023-04-24T05:52:12.406Z,8.53
2023-04-24T05:54:42.281Z,8.45
2023-04-24T05:57:13.033Z,9.33
2023-04-24T05:59:53.208Z,11.43
2023-04-24T06:02:24.146Z,12.50
2023-04-24T06:04:54.510Z,12.78
2023-04-24T06:07:27.472Z,13.15
2023-04-24T06:09:57.570Z,14.23
2023-04-24T06:12:28.890Z,14.73
2023-04-24T06:17:36.023Z,15.03
2023-04-24T06:20:07.391Z,15.32
2023-04-24T06:22:36.924Z,14.85
2023-04-24T06:25:06.887Z,15.00
2023-04-24T06:27:36.246Z,16.45
2023-04-24T06:30:06.467Z,15.23
2023-04-24T06:32:36.097Z,15.98
2023-04-24T06:35:05.992Z,14.95
2023-04-24T06:37:35.374Z,14.83
2023-04-24T06:40:06.492Z,14.83
2023-04-24T06:42:36.138Z,13.75
2023-04-24T06:45:06.594Z,14.43
2023-04-24T06:47:35.917Z,14.45
2023-04-24T06:50:05.400Z,12.20
2023-04-24T06:52:34.793Z,10.40
2023-04-24T06:55:04.894Z,10.10
2023-04-24T06:57:34.218Z,10.50
2023-04-24T07:00:04.384Z,9.13
2023-04-24T07:02:33.762Z,8.93
2023-04-24T07:05:04.189Z,9.43
2023-04-24T07:07:33.624Z,9.23
2023-04-24T07:10:05.010Z,10.35
2023-04-24T07:12:34.355Z,9.03
2023-04-24T07:15:04.249Z,9.15
2023-04-24T07:17:33.616Z,8.78
2023-04-24T07:20:03.565Z,9.20
2023-04-24T07:22:32.883Z,9.25
2023-04-24T07:25:03.083Z,9.10
2023-04-24T07:27:32.517Z,8.53
2023-04-24T07:30:01.960Z,8.15
2023-04-24T07:32:32.287Z,7.85
2023-04-24T07:35:01.912Z,8.33
2023-04-24T07:37:31.494Z,7.67
2023-04-24T07:40:00.876Z,7.20
2023-04-24T07:42:31.974Z,7.22
2023-04-24T07:45:01.273Z,6.55
2023-04-24T07:47:30.677Z,6.40
2023-04-24T07:50:00.525Z,5.78
2023-04-24T07:52:29.962Z,5.92
2023-04-24T07:54:59.505Z,5.30
2023-04-24T07:57:28.780Z,4.60
2023-04-24T07:59:58.229Z,4.80
2023-04-24T08:02:28.233Z,4.67
2023-04-24T08:05:00.254Z,4.20
2023-04-24T08:07:29.582Z,4.25
2023-04-24T08:10:00.327Z,4.00
2023-04-24T08:12:31.249Z,4.17
2023-04-24T08:15:01.507Z,3.60
2023-04-24T08:17:31.765Z,3.62
2023-04-24T08:20:02.762Z,3.90
2023-04-24T08:22:32.466Z,3.80
2023-04-24T08:25:02.760Z,3.62
2023-04-24T08:27:32.139Z,3.52
2023-04-24T08:30:01.886Z,3.60
2023-04-24T08:32:31.834Z,3.52
2023-04-24T08:35:02.064Z,3.40
2023-04-24T08:37:31.687Z,3.27
2023-04-24T08:40:00.984Z,3.27
2023-04-24T08:42:32.850Z,3.50
2023-04-24T08:45:03.539Z,3.52
2023-04-24T08:47:33.929Z,3.45
2023-04-24T08:50:06.872Z,3.92
2023-04-24T08:52:36.829Z,3.67
2023-04-24T08:55:07.446Z,3.42
2023-04-24T08:57:37.123Z,3.35
2023-04-24T09:00:08.973Z,3.83
2023-04-24T09:02:38.974Z,2.80
2023-04-24T09:05:09.667Z,3.22
2023-04-24T09:07:41.527Z,2.70
2023-04-24T09:10:11.589Z,2.92
2023-04-24T09:12:41.304Z,2.85
2023-04-24T09:15:11.782Z,2.55
2023-04-24T09:17:41.197Z,2.50
2023-04-24T09:20:10.792Z,2.52
2023-04-24T09:22:41.290Z,3.58
2023-04-24T09:25:13.869Z,2.20
2023-04-24T09:30:16.754Z,2.20
2023-04-24T09:32:46.155Z,2.10
2023-04-24T09:35:17.122Z,1.90
2023-04-24T09:37:47.955Z,2.05
2023-04-24T09:40:19.065Z,1.80
2023-04-24T09:42:57.744Z,2.40
2023-04-24T09:45:32.944Z,1.65
2023-04-24T09:48:02.313Z,1.40
2023-04-24T09:50:36.461Z,1.32
2023-04-24T09:53:09.184Z,1.70
2023-04-24T09:55:44.314Z,1.32
2023-04-24T09:58:13.572Z,1.50
2023-04-24T10:00:43.156Z,1.35
2023-04-24T10:03:12.794Z,1.45
2023-04-24T10:05:43.909Z,1.95
2023-04-24T10:08:14.387Z,1.57
2023-04-24T10:10:46.431Z,1.55
2023-04-24T10:13:17.015Z,1.22
2023-04-24T10:15:47.966Z,1.30
2023-04-24T10:18:18.306Z,1.75
2023-04-24T10:20:48.167Z,1.65
2023-04-24T10:23:19.306Z,1.42
2023-04-24T10:25:49.094Z,1.05
2023-04-24T10:28:18.724Z,1.30
2023-04-24T10:30:48.143Z,1.10
2023-04-24T10:33:17.561Z,0.90
2023-04-24T10:35:50.793Z,1.10
2023-04-24T10:38:25.118Z,1.10
2023-04-24T10:40:59.923Z,1.00
2023-04-24T10:43:29.934Z,1.30
2023-04-24T10:46:36.375Z,1.12
2023-04-24T10:49:10.135Z,1.10
2023-04-24T10:51:55.368Z,1.25
2023-04-24T10:54:33.853Z,1.10
2023-04-24T10:57:25.548Z,1.40
2023-04-24T10:59:58.230Z,1.05
2023-04-24T11:02:31.178Z,1.10
2023-04-24T11:05:04.204Z,1.12
2023-04-24T11:07:52.970Z,1.52
2023-04-24T11:10:29.195Z,1.40
2023-04-24T11:12:58.606Z,1.20
2023-04-24T11:15:28.647Z,1.50
2023-04-24T11:17:58.433Z,1.12
2023-04-24T11:20:28.808Z,1.05
2023-04-24T11:22:59.612Z,1.40
2023-04-24T11:25:32.911Z,1.00
2023-04-24T11:28:08.456Z,0.93
2023-04-24T11:30:39.573Z,1.05
2023-04-24T11:33:09.122Z,1.10
2023-04-24T11:38:34.351Z,1.27
2023-04-24T11:41:06.037Z,1.10
2023-04-24T11:43:36.357Z,1.20
2023-04-24T11:46:07.356Z,1.30
2023-04-24T11:48:41.586Z,1.27
2023-04-24T11:51:12.419Z,1.17
2023-04-24T11:53:42.198Z,1.02
2023-04-24T11:56:12.219Z,1.15
2023-04-24T11:58:41.655Z,1.37
2023-04-24T12:01:11.344Z,1.25
2023-04-24T12:03:42.728Z,1.10
2023-04-24T12:06:13.759Z,1.60
2023-04-24T12:08:43.126Z,1.27
2023-04-24T12:11:13.064Z,1.47
2023-04-24T12:13:42.808Z,1.57
2023-04-24T12:16:12.102Z,1.20
2023-04-24T12:18:46.291Z,1.47
2023-04-24T12:21:22.715Z,1.20
2023-04-24T12:23:52.069Z,1.42
2023-04-24T12:26:23.578Z,1.45
2023-04-24T12:28:52.959Z,1.60
2023-04-24T12:31:23.568Z,1.70
2023-04-24T12:33:53.407Z,1.70
2023-04-24T12:36:23.829Z,1.85
2023-04-24T12:38:54.814Z,1.70
2023-04-24T12:41:24.432Z,1.62
2023-04-24T12:43:56.394Z,1.40
2023-04-24T12:46:26.385Z,1.67
2023-04-24T12:48:55.747Z,1.80
2023-04-24T12:51:25.841Z,1.30
2023-04-24T12:53:56.579Z,1.30
2023-04-24T12:56:26.251Z,1.20
2023-04-24T12:58:55.912Z,1.85
2023-04-24T13:01:25.254Z,1.60
2023-04-24T13:03:54.885Z,1.87
2023-04-24T13:06:24.428Z,1.60
2023-04-24T13:08:56.109Z,1.70
2023-04-24T13:11:25.991Z,1.80
2023-04-24T13:13:55.848Z,1.60
2023-04-24T13:16:25.211Z,1.30
2023-04-24T13:18:54.715Z,1.47
2023-04-24T13:21:23.963Z,1.20
2023-04-24T13:23:53.757Z,1.32
2023-04-24T13:26:23.017Z,1.60
2023-04-24T13:28:52.315Z,1.65
2023-04-24T13:31:21.867Z,1.70
2023-04-24T13:33:51.170Z,1.50
2023-04-24T13:36:20.579Z,1.42
2023-04-24T13:38:50.230Z,1.72
2023-04-24T13:41:19.620Z,1.72
2023-04-24T13:43:48.939Z,1.80
2023-04-24T13:46:18.775Z,1.80
2023-04-24T13:48:48.524Z,2.30
2023-04-24T13:51:17.946Z,2.08
2023-04-24T13:53:47.214Z,1.87
2023-04-24T13:56:17.174Z,2.10
2023-04-24T13:58:46.782Z,2.40
2023-04-24T14:01:17.192Z,2.10
2023-04-24T14:03:47.468Z,2.20
2023-04-24T14:06:17.646Z,2.33
2023-04-24T14:08:48.118Z,2.62
2023-04-24T14:11:17.592Z,2.10
2023-04-24T14:13:48.098Z,2.40
2023-04-24T14:16:17.491Z,2.37
2023-04-24T14:18:46.835Z,2.42
2023-04-24T14:21:16.763Z,2.30
2023-04-24T14:23:46.883Z,2.55
2023-04-24T14:26:16.764Z,2.75
2023-04-24T14:28:46.230Z,2.22
2023-04-24T14:31:15.816Z,2.20
2023-04-24T14:33:45.267Z,2.08
2023-04-24T14:36:14.805Z,2.77
2023-04-24T14:38:44.035Z,2.50
2023-04-24T14:41:14.331Z,2.80
2023-04-24T14:43:44.268Z,2.87
2023-04-24T14:46:13.912Z,2.70
2023-04-24T14:48:43.442Z,3.37
2023-04-24T14:51:13.220Z,3.45
2023-04-24T14:53:42.681Z,3.30
2023-04-24T14:56:12.368Z,3.20
2023-04-24T14:58:41.734Z,3.40
2023-04-24T15:01:11.074Z,3.47
2023-04-24T15:03:40.952Z,3.17
2023-04-24T15:06:10.304Z,3.08
2023-04-24T15:08:39.913Z,3.40
2023-04-24T15:11:09.350Z,3.10
2023-04-24T15:13:38.636Z,3.52
2023-04-24T15:16:08.090Z,3.58
2023-04-24T15:18:37.824Z,3.35
2023-04-24T15:21:07.182Z,4.03
2023-04-24T15:23:36.871Z,3.20
2023-04-24T15:26:06.194Z,3.27
2023-04-24T15:28:36.058Z,3.20
2023-04-24T15:31:05.321Z,3.00
2023-04-24T15:33:34.746Z,4.08
2023-04-24T15:36:04.033Z,4.05
2023-04-24T15:38:33.940Z,3.72
2023-04-24T15:41:03.189Z,3.20
2023-04-24T15:43:34.396Z,2.83
2023-04-24T15:46:04.562Z,2.65
2023-04-24T15:48:34.225Z,2.90
2023-04-24T15:51:03.626Z,2.58
2023-04-24T15:53:33.047Z,3.10
2023-04-24T15:56:02.411Z,3.12
2023-04-24T15:58:31.886Z,3.10
2023-04-24T16:01:01.635Z,3.20
2023-04-24T16:03:31.286Z,2.80
2023-04-24T16:06:00.757Z,2.70
2023-04-24T16:08:30.246Z,2.92
2023-04-24T16:10:59.566Z,3.00
2023-04-24T16:13:29.773Z,2.87
2023-04-24T16:15:59.230Z,2.72
2023-04-24T16:18:28.712Z,3.17
2023-04-24T16:20:58.334Z,3.30
2023-04-24T16:23:28.044Z,3.62
2023-04-24T16:25:57.367Z,3.75
2023-04-24T16:28:27.792Z,3.58
2023-04-24T16:30:57.079Z,3.95
2023-04-24T16:33:26.689Z,4.00
2023-04-24T16:35:57.042Z,3.87
2023-04-24T16:38:26.992Z,4.10
2023-04-24T16:40:56.469Z,3.58
2023-04-24T16:43:27.254Z,3.75
2023-04-24T16:45:57.398Z,4.30
2023-04-24T16:48:26.792Z,3.77
2023-04-24T16:50:56.227Z,4.20
2023-04-24T16:53:25.909Z,5.15
2023-04-24T16:55:55.244Z,5.50
2023-04-24T16:58:24.554Z,4.62
2023-04-24T17:00:53.916Z,4.03
2023-04-24T17:03:23.731Z,4.05
2023-04-24T17:05:53.132Z,3.83
2023-04-24T17:08:24.200Z,3.40
2023-04-24T17:10:53.643Z,4.90
2023-04-24T17:13:23.304Z,4.03
2023-04-24T17:15:52.625Z,3.90
2023-04-24T17:18:22.168Z,3.83
2023-04-24T17:20:51.686Z,4.30
2023-04-24T17:23:22.060Z,4.33
2023-04-24T17:25:51.634Z,4.70
2023-04-24T17:28:29.880Z,4.62
2023-04-24T17:30:59.488Z,5.22
2023-04-24T17:33:30.615Z,4.05
2023-04-24T17:36:02.493Z,5.20
2023-04-24T17:38:31.804Z,4.12
2023-04-24T17:41:01.687Z,4.60
2023-04-24T17:43:31.359Z,5.22
2023-04-24T17:46:00.965Z,5.67
2023-04-24T17:48:30.418Z,4.95
2023-04-24T17:50:59.928Z,5.47
2023-04-24T17:53:29.315Z,4.72
2023-04-24T17:56:00.349Z,4.97
2023-04-24T17:58:32.005Z,5.17
2023-04-24T18:01:01.283Z,4.57
2023-04-24T18:03:31.289Z,4.55
2023-04-24T18:06:00.909Z,4.65
2023-04-24T18:08:30.188Z,4.65
2023-04-24T18:10:59.844Z,5.03
2023-04-24T18:13:29.307Z,5.05
2023-04-24T18:15:58.649Z,4.55
2023-04-24T18:18:28.112Z,4.42
2023-04-24T18:20:57.619Z,4.47
2023-04-24T18:23:27.081Z,4.15
2023-04-24T18:25:56.616Z,3.90
2023-04-24T18:28:26.123Z,4.03
2023-04-24T18:30:55.605Z,4.72
2023-04-24T18:33:25.356Z,4.47
2023-04-24T18:35:54.730Z,4.50
2023-04-24T18:38:25.700Z,4.10
2023-04-24T18:40:55.003Z,4.60
2023-04-24T18:43:24.549Z,4.08
2023-04-24T18:45:53.847Z,5.28
2023-04-24T18:48:23.130Z,4.55
2023-04-24T18:50:52.815Z,4.50
2023-04-24T18:53:22.202Z,4.37
2023-04-24T18:55:51.585Z,4.60
2023-04-24T18:58:21.062Z,4.50
2023-04-24T19:00:50.915Z,4.30
2023-04-24T19:03:21.370Z,4.05
2023-04-24T19:05:50.869Z,4.47
2023-04-24T19:08:20.222Z,4.78
2023-04-24T19:10:49.687Z,3.85
2023-04-24T19:13:20.205Z,4.25
2023-04-24T19:15:49.862Z,3.90
2023-04-24T19:18:19.149Z,4.08
2023-04-24T19:20:49.033Z,3.90
2023-04-24T19:23:18.342Z,4.08
2023-04-24T19:25:47.751Z,4.05
2023-04-24T19:28:17.100Z,4.75
2023-04-24T19:30:46.818Z,3.95
2023-04-24T19:33:17.127Z,4.33
2023-04-24T19:35:46.630Z,4.10
2023-04-24T19:38:15.908Z,3.87
2023-04-24T19:40:45.576Z,4.20
2023-04-24T19:43:15.036Z,3.80
2023-04-24T19:45:44.673Z,4.12
2023-04-24T19:48:14.506Z,4.30
2023-04-24T19:50:44.474Z,4.12
2023-04-24T19:53:14.743Z,3.42
2023-04-24T19:55:44.432Z,4.05
2023-04-24T19:58:13.731Z,3.42
2023-04-24T20:00:43.567Z,3.70
2023-04-24T20:03:25.652Z,3.30
2023-04-24T20:05:44.110Z,3.50
2023-04-24T20:08:13.554Z,3.00
2023-04-24T20:10:44.005Z,3.50
2023-04-24T20:13:13.731Z,3.02
2023-04-24T20:15:43.112Z,3.67
2023-04-24T20:18:12.467Z,3.08
2023-04-24T20:20:41.853Z,3.00
2023-04-24T20:23:11.472Z,3.45
2023-04-24T20:25:40.749Z,3.15
2023-04-24T20:28:10.038Z,3.85
2023-04-24T20:30:39.412Z,3.58
2023-04-24T20:33:08.802Z,3.15
2023-04-24T20:35:38.250Z,3.33
2023-04-24T20:38:07.571Z,3.12
2023-04-24T20:40:46.891Z,3.12
2023-04-24T20:43:09.183Z,2.92
2023-04-24T20:45:39.183Z,3.25
2023-04-24T20:48:10.088Z,3.20
2023-04-24T20:50:42.065Z,3.00
2023-04-24T20:53:11.805Z,3.25
2023-04-24T20:55:41.261Z,3.42
2023-04-24T20:58:11.473Z,3.15
2023-04-24T21:00:40.816Z,3.47
2023-04-24T21:03:10.491Z,3.30
2023-04-24T21:05:39.844Z,3.17
2023-04-24T21:08:09.536Z,3.72
2023-04-24T21:10:38.794Z,3.50
2023-04-24T21:13:08.092Z,3.67
2023-04-24T21:15:37.429Z,3.67
2023-04-24T21:18:07.039Z,3.70
2023-04-24T21:20:36.477Z,3.20
2023-04-24T21:23:06.774Z,3.08
2023-04-24T21:25:39.098Z,3.42
2023-04-24T21:28:09.171Z,4.17
2023-04-24T21:30:39.095Z,3.92
2023-04-24T21:33:08.610Z,4.25
2023-04-24T21:35:38.443Z,3.20
2023-04-24T21:38:07.708Z,3.50
2023-04-24T21:40:37.111Z,4.50
2023-04-24T21:43:06.552Z,3.83
2023-04-24T21:45:35.808Z,4.30
2023-04-24T21:48:06.410Z,3.67
2023-04-24T21:50:35.722Z,4.25
2023-04-24T21:53:05.019Z,5.12
2023-04-24T21:55:34.364Z,12.60
2023-04-24T21:58:03.942Z,4.62
2023-04-24T22:00:35.898Z,4.47
2023-04-24T22:03:05.255Z,4.33
2023-04-24T22:05:34.599Z,5.15
2023-04-24T22:08:03.848Z,4.30
2023-04-24T22:10:33.557Z,3.45
2023-04-24T22:13:03.067Z,3.00
2023-04-24T22:15:32.661Z,3.30
2023-04-24T22:18:03.872Z,3.00
2023-04-24T22:20:36.888Z,3.27
2023-04-24T22:23:06.422Z,2.85
2023-04-24T22:25:35.830Z,2.90
2023-04-24T22:28:05.464Z,2.90
2023-04-24T22:30:34.728Z,3.00
2023-04-24T22:33:04.898Z,3.27
2023-04-24T22:35:35.907Z,2.87
2023-04-24T22:38:05.675Z,2.92
2023-04-24T22:40:35.107Z,2.85
2023-04-24T22:43:05.072Z,2.77
2023-04-24T22:45:34.555Z,3.52
2023-04-24T22:48:03.953Z,2.80
2023-04-24T22:50:33.237Z,2.70
2023-04-24T22:53:02.481Z,2.85
2023-04-24T22:55:31.837Z,3.10
2023-04-24T22:58:01.503Z,3.00
2023-04-24T23:00:30.877Z,3.83
2023-04-24T23:03:00.325Z,3.70
2023-04-24T23:05:31.098Z,3.52
2023-04-24T23:08:00.409Z,3.00
2023-04-24T23:10:30.350Z,3.10
2023-04-24T23:13:01.479Z,3.45
2023-04-24T23:15:31.396Z,3.17
2023-04-24T23:18:00.829Z,3.08
2023-04-24T23:20:30.285Z,3.95
2023-04-24T23:22:59.644Z,3.87
2023-04-24T23:25:29.228Z,3.40
2023-04-24T23:27:58.629Z,3.40
2023-04-24T23:30:28.165Z,3.37
2023-04-24T23:32:57.519Z,3.70
2023-04-24T23:35:27.166Z,3.72
2023-04-24T23:37:56.737Z,3.92
2023-04-24T23:40:26.376Z,3.98
2023-04-24T23:43:06.115Z,3.45
2023-04-24T23:45:26.800Z,3.45
2023-04-24T23:47:56.763Z,3.60
2023-04-24T23:50:26.436Z,4.10
2023-04-24T23:52:56.103Z,3.95
2023-04-24T23:55:25.425Z,4.47
2023-04-24T23:57:54.667Z,4.10
